Terminal Aerodrome Forecast
Issued by NWS Houston/Galveston TX

Home | Current Version | Previous Version | Text Only | Print | Product List | Glossary On
Versions: 1 2 3 4 5 6 7 8 9 10 11 12 13 14 15 16 17 18 19 20 21 22 23 24 25 26 27 28 29 30 31 32 33 34 35 36 37 38 39 40 41 42 43 44 45 46 47 48 49 50
000
FTUS44 KHGX 162322
TAFHOU
TAF
KHOU 162322Z 1700/1724 13008KT 3SM -DZ BR VCSH OVC005
     FM170900 19005KT 1 1/2SM BR OVC003
     FM171600 26007KT 4SM BR BKN020
     FM172000 26007KT 6SM BR SCT030=

USA.gov is the U.S. government's official web portal to all federal, state and local government web resources and services.